Aérodrome :
LOGIN :

S'inscrire | Disclaimer

   EN    FR    IT 

 










Légende :    VFR   VFR Marginal   IFR   IFR Intensif   IFR Très Intensif
Visi : 
Plafond : 
>= 8 km
>= 3000ft
5 à 8 km
1000 à 3000 ft
1500m à 5 km
500 à 1000 ft
800 à 1500m
200 à 500 ft
< 800m
< 200 ft
Symboles :   Orages  Brouillard  Fortes neiges  Fortes précipitations  Vent > 20 kt
SIGMETs :   Divers  Orages  Givrage  Turbulence  Onde Orograph.  Cendres Volcan.






- Altitude de l'aérodrome : 584 ft


LFPV - Villacoublay Vélizy

DERNIER METAR :
  • 301900Z AUTO 21004KT 170V260 9999 ////// 15/11 Q1015

METARs EXPIRÉS :
  • 301830Z AUTO 21006KT 180V240 9999 ////// 16/11 Q1015
  • 301800Z AUTO 21008KT 150V240 9999 4500 ////// 17/12 Q1015
  • 301730Z AUTO 18009KT 140V230 9999 ////// 18/12 Q1014
  • 301700Z AUTO 18009KT 140V230 9999 ////// 17/12 Q1014
  • 301630Z AUTO 18008KT 150V210 9999 ////// 17/13 Q1014

TAF TAF LFPV
Valide du 30 à 15h jusqu'au 01 à 15h UTC


301400Z 3015/0115 22010KT 9999 SCT030 TX22/0115Z TN10/0105Z
TEMPO 3015/3020 4500 SHRA SCT020 BKN030CB



MET'MAP, la Météo Aéronautique d'un coup d'oeil ! - Copyright ORBIFLY Décembre 2007 - Disclaimer

ORBIFLY MET'MAP TEAM :

Programmation & Développement : Alexandra Zaïnal
Sur une idée originale de : Baudouin d'Aumeries
Soutien technique & logistique : Manuel Goepfert
Assistance : Marc-Olivier Méhu




SOURCES & CREDITS :

   NOAA